Time;durP1;ratioP1;P1;durP2;ratioP2;P2;SDS_P1;SDS_P2;PMS_P1;PMS_P2;Temp;Humidity;BMP_temperature;BMP_pressure;BME280_temperature;BME280_humidity;BME280_pressure;Samples;Min_cycle;Max_cycle;Signal;HPM_P1;HPM_P2
2021/11/10 00:02:22;;;;;;;16.27;7.97;;;5.90;98.80;;;;;;5009524;28;20033;-60
2021/11/10 00:04:47;;;;;;;14.50;7.78;;;5.90;98.80;;;;;;5011291;28;20088;-60
2021/11/10 00:07:13;;;;;;;11.93;6.95;;;5.90;98.80;;;;;;5010934;28;20061;-60
2021/11/10 00:09:39;;;;;;;11.13;6.95;;;5.90;98.70;;;;;;5011126;28;20038;-60
2021/11/10 00:12:05;;;;;;;12.52;5.97;;;5.80;98.70;;;;;;4993645;28;20092;-60
2021/11/10 00:14:30;;;;;;;10.63;5.55;;;5.90;98.60;;;;;;5011214;28;20026;-60
2021/11/10 00:16:56;;;;;;;11.40;5.35;;;5.90;98.50;;;;;;5010974;28;20026;-61
2021/11/10 00:19:23;;;;;;;8.68;5.20;;;5.90;98.50;;;;;;5011370;28;20493;-60
2021/11/10 00:21:50;;;;;;;10.60;5.13;;;5.90;98.40;;;;;;5010864;28;20033;-60
2021/11/10 00:24:15;;;;;;;8.75;4.57;;;5.90;98.30;;;;;;5010769;28;20017;-60
2021/11/10 00:26:41;;;;;;;12.18;5.07;;;5.90;98.20;;;;;;5011097;28;20033;-60
2021/11/10 00:29:06;;;;;;;8.95;5.43;;;5.90;98.10;;;;;;5010964;28;20030;-60
2021/11/10 00:31:32;;;;;;;9.68;4.93;;;5.90;98.10;;;;;;5010967;28;20084;-60
2021/11/10 00:33:58;;;;;;;13.15;6.57;;;5.90;98.10;;;;;;5010715;28;20061;-60
2021/11/10 00:36:23;;;;;;;12.93;5.75;;;5.80;98.00;;;;;;4993134;28;20030;-60
2021/11/10 00:38:49;;;;;;;7.82;4.70;;;5.80;98.00;;;;;;4993215;28;20026;-60
2021/11/10 00:41:16;;;;;;;17.45;7.78;;;5.80;97.90;;;;;;5010482;28;20428;-60
2021/11/10 00:43:42;;;;;;;11.73;4.78;;;5.80;97.90;;;;;;5007946;28;20022;-60
2021/11/10 00:46:08;;;;;;;7.97;4.60;;;5.70;97.90;;;;;;5010235;28;20033;-60
2021/11/10 00:48:33;;;;;;;7.07;4.32;;;5.70;97.90;;;;;;4992661;28;20049;-60
2021/11/10 00:50:59;;;;;;;9.65;4.80;;;5.70;97.80;;;;;;5010322;28;20029;-60
2021/11/10 00:53:25;;;;;;;9.52;4.60;;;5.70;97.80;;;;;;5010411;28;20037;-60
2021/11/10 00:55:51;;;;;;;10.23;5.10;;;5.60;97.80;;;;;;5010349;28;20585;-60
2021/11/10 00:58:16;;;;;;;9.38;4.50;;;5.70;97.70;;;;;;5010166;28;20441;-60
2021/11/10 01:00:42;;;;;;;7.63;4.63;;;5.60;97.70;;;;;;5010593;28;20033;-60
2021/11/10 01:03:08;;;;;;;7.90;4.40;;;5.60;97.70;;;;;;4991744;28;20034;-60
2021/11/10 01:05:35;;;;;;;7.72;4.10;;;5.50;97.70;;;;;;5009936;28;20038;-60
2021/11/10 01:08:03;;;;;;;8.02;4.40;;;5.50;97.70;;;;;;5010452;28;20528;-60
2021/11/10 01:10:29;;;;;;;10.82;5.47;;;5.50;97.70;;;;;;4992638;28;20442;-60
2021/11/10 01:12:54;;;;;;;9.25;5.40;;;5.50;97.60;;;;;;5001945;28;20064;-60
2021/11/10 01:15:20;;;;;;;7.82;5.30;;;5.40;97.60;;;;;;5009353;28;20034;-60
2021/11/10 01:17:45;;;;;;;9.90;4.78;;;5.30;97.70;;;;;;5003451;28;20033;-60
2021/11/10 01:20:13;;;;;;;10.70;5.43;;;5.30;97.70;;;;;;5009891;28;20029;-60
2021/11/10 01:22:39;;;;;;;10.18;4.82;;;5.30;97.70;;;;;;4992806;28;20596;-60
2021/11/10 01:25:06;;;;;;;7.43;4.68;;;5.30;97.70;;;;;;4992671;28;20109;-60
2021/11/10 01:27:32;;;;;;;9.00;4.82;;;5.30;97.70;;;;;;5010453;28;20026;-60
2021/11/10 01:29:58;;;;;;;8.48;5.47;;;5.30;97.70;;;;;;5008793;28;20502;-60
2021/11/10 01:32:24;;;;;;;10.13;4.95;;;5.30;97.60;;;;;;5010115;28;20112;-60
2021/11/10 01:34:49;;;;;;;8.88;4.90;;;5.30;97.60;;;;;;5010095;28;20025;-60
2021/11/10 01:37:15;;;;;;;8.80;4.65;;;5.30;97.60;;;;;;5009969;28;20029;-60
2021/11/10 01:39:41;;;;;;;12.02;7.80;;;5.30;97.60;;;;;;5010304;28;20030;-60
2021/11/10 01:42:07;;;;;;;18.63;8.27;;;5.10;97.60;;;;;;5010059;28;20417;-60
2021/11/10 01:44:36;;;;;;;11.88;7.22;;;4.90;98.00;;;;;;5009522;28;20038;-60
2021/11/10 01:47:06;;;;;;;9.25;5.50;;;4.80;98.30;;;;;;5010005;28;20026;-60
2021/11/10 01:49:31;;;;;;;;;;;4.80;98.40;;;;;;5010311;28;20522;-60
2021/11/10 01:51:59;;;;;;;7.07;4.60;;;4.80;98.30;;;;;;5009875;28;20060;-60
2021/11/10 01:54:27;;;;;;;14.43;6.75;;;4.80;98.50;;;;;;5009702;28;20026;-60
2021/11/10 01:56:53;;;;;;;18.13;8.65;;;4.80;98.40;;;;;;5012480;28;20042;-60
2021/11/10 01:59:30;;;;;;;16.00;8.63;;;4.70;98.50;;;;;;5012110;28;20429;-60
2021/11/10 02:01:56;;;;;;;21.38;9.75;;;4.80;98.60;;;;;;5013398;28;20052;-60
2021/11/10 02:04:25;;;;;;;12.32;7.75;;;4.70;99.00;;;;;;5013194;28;20490;-60
2021/11/10 02:06:50;;;;;;;9.52;6.20;;;4.60;99.10;;;;;;4997860;28;20122;-60
2021/11/10 02:09:16;;;;;;;17.65;9.45;;;4.60;99.20;;;;;;5014348;28;20109;-60
2021/11/10 02:11:42;;;;;;;15.07;9.00;;;4.60;99.30;;;;;;5013892;28;20026;-60
2021/11/10 02:14:08;;;;;;;13.77;7.55;;;4.50;99.40;;;;;;4995974;28;20615;-60
2021/11/10 02:16:38;;;;;;;9.23;6.60;;;4.50;99.50;;;;;;5013155;28;20046;-60
2021/11/10 02:19:05;;;;;;;9.70;5.70;;;4.60;99.40;;;;;;4995881;28;20064;-60
2021/11/10 02:21:32;;;;;;;18.63;8.88;;;4.60;99.40;;;;;;5013250;28;20494;-60
2021/11/10 02:23:59;;;;;;;18.27;9.43;;;4.60;99.50;;;;;;5012935;28;20390;-60
2021/11/10 02:26:25;;;;;;;18.58;9.02;;;4.50;99.60;;;;;;5013755;28;20025;-60
2021/11/10 02:28:51;;;;;;;17.33;10.02;;;4.50;99.70;;;;;;4993917;28;20470;-60
2021/11/10 02:31:17;;;;;;;17.92;10.15;;;4.50;99.90;;;;;;5004889;28;20107;-60
2021/11/10 02:33:43;;;;;;;16.95;9.27;;;4.40;99.90;;;;;;5013207;28;20036;-60
2021/11/10 02:36:09;;;;;;;18.50;9.70;;;4.40;99.90;;;;;;5013119;28;20037;-60
2021/11/10 02:38:35;;;;;;;15.75;9.95;;;4.30;99.90;;;;;;5012795;28;20534;-60
2021/11/10 02:41:02;;;;;;;19.55;9.68;;;4.30;99.90;;;;;;5012695;28;20030;-60
2021/11/10 02:43:28;;;;;;;15.15;8.95;;;4.30;99.90;;;;;;5012836;28;20022;-60
2021/11/10 02:45:55;;;;;;;16.95;9.45;;;4.30;99.90;;;;;;5012649;28;20030;-60
2021/11/10 02:48:22;;;;;;;16.77;9.18;;;4.30;99.90;;;;;;4995251;28;20049;-60
2021/11/10 02:50:49;;;;;;;16.55;9.10;;;4.30;99.90;;;;;;5004807;28;20478;-60
2021/11/10 02:53:15;;;;;;;14.07;7.32;;;4.30;99.90;;;;;;5012428;28;20107;-60
2021/11/10 02:55:40;;;;;;;15.90;9.35;;;4.30;99.90;;;;;;5012637;28;20470;-60
2021/11/10 02:58:06;;;;;;;15.55;9.38;;;4.30;99.90;;;;;;5013131;28;20462;-60
2021/11/10 03:00:31;;;;;;;16.67;9.93;;;4.30;99.90;;;;;;5012290;28;20450;-60
2021/11/10 03:02:58;;;;;;;17.50;10.25;;;4.30;99.90;;;;;;5012286;28;20563;-60
2021/11/10 03:05:24;;;;;;;13.20;9.18;;;4.30;99.90;;;;;;5012346;28;20124;-60
2021/11/10 03:07:50;;;;;;;13.57;8.60;;;4.30;99.90;;;;;;5011615;28;20026;-60
2021/11/10 03:10:16;;;;;;;12.52;8.82;;;4.30;99.90;;;;;;5012107;28;20061;-60
2021/11/10 03:12:42;;;;;;;17.25;8.65;;;4.30;99.90;;;;;;5014146;28;20460;-60
2021/11/10 03:15:09;;;;;;;14.32;9.18;;;4.20;99.90;;;;;;4996380;28;20393;-60
2021/11/10 03:17:35;;;;;;;13.25;7.55;;;4.20;99.90;;;;;;5012185;28;20037;-60
2021/11/10 03:20:02;;;;;;;11.73;6.68;;;4.20;99.90;;;;;;5012265;28;20022;-60
2021/11/10 03:22:28;;;;;;;9.57;5.95;;;4.20;99.90;;;;;;5010805;28;20113;-60
2021/11/10 03:24:54;;;;;;;14.75;9.57;;;4.30;99.90;;;;;;5012253;28;20114;-60
2021/11/10 03:27:19;;;;;;;17.70;9.25;;;4.20;99.90;;;;;;5010768;28;20029;-60
2021/11/10 03:29:50;;;;;;;13.23;7.70;;;4.20;99.90;;;;;;5012078;28;20029;-60
2021/11/10 03:32:17;;;;;;;13.88;6.65;;;4.10;99.90;;;;;;5011906;28;20030;-60
2021/11/10 03:34:42;;;;;;;10.88;6.57;;;4.20;99.90;;;;;;5011966;28;20022;-60
2021/11/10 03:37:08;;;;;;;9.75;5.90;;;4.20;99.90;;;;;;5012023;28;20539;-60
2021/11/10 03:39:34;;;;;;;9.30;5.32;;;4.20;99.90;;;;;;4991735;28;20049;-60
2021/11/10 03:42:00;;;;;;;7.32;5.22;;;4.20;99.90;;;;;;4975365;28;20014;-60
2021/11/10 03:44:26;;;;;;;13.82;8.75;;;4.20;99.90;;;;;;4994349;28;20025;-60
2021/11/10 03:46:51;;;;;;;18.98;9.13;;;4.20;99.90;;;;;;5012019;28;20057;-60
2021/11/10 03:49:17;;;;;;;16.70;9.05;;;4.20;99.90;;;;;;5011517;28;20072;-60
2021/11/10 03:51:43;;;;;;;17.27;10.13;;;4.10;99.90;;;;;;5011649;28;20026;-60
2021/11/10 03:54:09;;;;;;;14.80;9.65;;;4.10;99.90;;;;;;5004279;28;20105;-60
2021/11/10 03:56:38;;;;;;;20.83;9.90;;;4.00;99.90;;;;;;5011666;28;20121;-61
2021/11/10 03:59:03;;;;;;;18.42;9.45;;;4.00;99.90;;;;;;5011527;28;20030;-60
2021/11/10 04:01:29;;;;;;;15.10;8.55;;;4.00;99.90;;;;;;5011353;28;20036;-60
2021/11/10 04:03:55;;;;;;;20.45;9.68;;;3.90;99.90;;;;;;5011144;28;20085;-60
2021/11/10 04:06:20;;;;;;;18.17;9.75;;;3.90;99.90;;;;;;5011260;28;20033;-60
2021/11/10 04:08:47;;;;;;;15.13;9.38;;;3.90;99.90;;;;;;5011432;28;20048;-60
2021/11/10 04:11:12;;;;;;;23.00;10.82;;;3.90;99.90;;;;;;5011187;28;20030;-60
2021/11/10 04:13:38;;;;;;;18.50;10.02;;;3.90;99.90;;;;;;5010923;28;20030;-59
2021/11/10 04:16:04;;;;;;;15.15;10.27;;;3.80;99.90;;;;;;5003671;28;20036;-60
2021/11/10 04:18:33;;;;;;;20.58;10.35;;;3.80;99.90;;;;;;5009769;28;20050;-60
2021/11/10 04:21:01;;;;;;;21.87;10.80;;;3.70;99.90;;;;;;4993145;28;20109;-60
2021/11/10 04:23:28;;;;;;;17.55;10.73;;;3.70;99.90;;;;;;5011189;28;20036;-60
2021/11/10 04:25:54;;;;;;;18.95;10.90;;;3.60;99.90;;;;;;5011170;28;20029;-60
2021/11/10 04:28:19;;;;;;;20.13;11.57;;;3.70;99.90;;;;;;5010731;28;20017;-60
2021/11/10 04:30:45;;;;;;;22.67;11.93;;;3.60;99.90;;;;;;5011189;28;20080;-60
2021/11/10 04:33:10;;;;;;;18.58;10.48;;;3.60;99.90;;;;;;5010812;28;20021;-60
2021/11/10 04:35:38;;;;;;;20.70;9.95;;;3.60;99.90;;;;;;5010777;28;20087;-60
2021/11/10 04:38:04;;;;;;;23.02;11.07;;;3.60;99.90;;;;;;5010689;28;20018;-60
2021/11/10 04:40:29;;;;;;;21.23;10.70;;;3.60;99.90;;;;;;5010790;28;20026;-59
2021/11/10 04:42:55;;;;;;;17.80;10.30;;;3.50;99.90;;;;;;5010621;28;20026;-60
2021/11/10 04:45:28;;;;;;;19.38;10.65;;;3.60;99.90;;;;;;5010011;28;20400;-60
2021/11/10 04:47:54;;;;;;;21.48;12.27;;;3.60;99.90;;;;;;5010348;28;20394;-59
2021/11/10 04:50:19;;;;;;;16.73;10.43;;;3.60;99.90;;;;;;5010734;28;20465;-60
2021/11/10 04:52:46;;;;;;;21.15;12.15;;;3.60;99.90;;;;;;5010763;28;20379;-60
2021/11/10 04:55:12;;;;;;;18.73;11.65;;;3.60;99.90;;;;;;5010534;28;20057;-60
2021/11/10 04:57:37;;;;;;;24.05;11.88;;;3.50;99.90;;;;;;5010355;28;20053;-60
2021/11/10 05:00:05;;;;;;;24.25;13.10;;;3.50;99.90;;;;;;5004223;28;20035;-60
2021/11/10 05:02:31;;;;;;;24.48;12.05;;;3.50;99.90;;;;;;5002656;28;20389;-60
2021/11/10 05:04:57;;;;;;;20.70;11.75;;;3.50;99.90;;;;;;5009979;28;20041;-59
2021/11/10 05:07:23;;;;;;;24.50;11.88;;;3.50;99.90;;;;;;5010549;28;20083;-60
2021/11/10 05:09:50;;;;;;;23.25;12.60;;;3.50;99.90;;;;;;5010463;28;20030;-60
2021/11/10 05:12:15;;;;;;;23.33;12.40;;;3.50;99.90;;;;;;5010472;28;20038;-60
2021/11/10 05:14:41;;;;;;;23.05;13.27;;;3.40;99.90;;;;;;4992890;28;20033;-60
2021/11/10 05:17:07;;;;;;;21.05;12.20;;;3.40;99.90;;;;;;5010348;28;20071;-60
2021/11/10 05:19:32;;;;;;;24.27;12.18;;;3.40;99.90;;;;;;4992315;28;20038;-60
2021/11/10 05:21:58;;;;;;;21.23;11.63;;;3.40;99.90;;;;;;5002755;28;20157;-60
2021/11/10 05:24:26;;;;;;;23.13;11.68;;;3.40;99.90;;;;;;5010794;28;20064;-60
2021/11/10 05:26:52;;;;;;;18.77;11.23;;;3.40;99.90;;;;;;5010541;28;20022;-60
2021/11/10 05:29:17;;;;;;;22.10;12.48;;;3.40;99.90;;;;;;5010762;28;20026;-61
2021/11/10 05:31:43;;;;;;;15.85;11.02;;;3.40;99.90;;;;;;4995626;28;20132;-60
2021/11/10 05:34:08;;;;;;;19.58;12.50;;;3.40;99.90;;;;;;5014549;28;20486;-60
2021/11/10 05:36:34;;;;;;;22.92;11.90;;;3.40;99.90;;;;;;5014692;28;20030;-60
2021/11/10 05:39:00;;;;;;;23.63;13.20;;;3.30;99.90;;;;;;5014205;28;20556;-60
2021/11/10 05:41:25;;;;;;;20.85;11.55;;;3.30;99.90;;;;;;5012774;28;20113;-60
2021/11/10 05:43:51;;;;;;;18.52;12.32;;;3.30;99.90;;;;;;4990002;28;20022;-60
2021/11/10 05:46:16;;;;;;;23.73;12.95;;;3.30;99.90;;;;;;5014073;28;20100;-60
2021/11/10 05:48:42;;;;;;;24.48;12.27;;;3.30;99.90;;;;;;5013825;28;20029;-60
2021/11/10 05:51:07;;;;;;;22.30;11.68;;;3.30;99.90;;;;;;5013993;28;20466;-60
2021/11/10 05:53:33;;;;;;;20.33;11.65;;;3.30;99.90;;;;;;5013880;28;20033;-60
2021/11/10 05:56:00;;;;;;;21.42;11.00;;;3.20;99.90;;;;;;5013777;28;20080;-60
2021/11/10 05:58:28;;;;;;;18.63;11.75;;;3.20;99.90;;;;;;5015189;28;20414;-60
2021/11/10 06:00:56;;;;;;;21.17;12.32;;;3.20;99.90;;;;;;5015872;28;20026;-60
2021/11/10 06:03:22;;;;;;;20.98;11.93;;;3.20;99.90;;;;;;5015715;28;20371;-60
2021/11/10 06:05:54;;;;;;;20.63;12.07;;;3.20;99.90;;;;;;5015370;28;20091;-60
2021/11/10 06:08:20;;;;;;;21.92;11.77;;;3.20;99.90;;;;;;5015667;28;20478;-60
2021/11/10 06:10:47;;;;;;;19.83;11.20;;;3.20;99.90;;;;;;5015563;28;20037;-60
2021/11/10 06:13:12;;;;;;;24.70;12.88;;;3.20;99.90;;;;;;5014505;28;20115;-60
2021/11/10 06:15:38;;;;;;;26.90;10.93;;;3.20;99.90;;;;;;5013706;28;20063;-60
2021/11/10 06:18:04;;;;;;;24.55;12.70;;;3.20;99.90;;;;;;5015352;28;20026;-60
2021/11/10 06:20:30;;;;;;;18.25;11.32;;;3.20;99.90;;;;;;5015233;28;20512;-60
2021/11/10 06:22:55;;;;;;;21.75;11.00;;;3.20;99.90;;;;;;5015339;28;20018;-60
2021/11/10 06:25:21;;;;;;;20.95;11.75;;;3.20;99.90;;;;;;5015001;28;20033;-59
2021/11/10 06:27:49;;;;;;;19.65;10.82;;;3.20;99.90;;;;;;5015326;28;20021;-60
2021/11/10 06:30:15;;;;;;;18.60;11.10;;;3.20;99.90;;;;;;5015303;28;20029;-60
2021/11/10 06:32:45;;;;;;;19.52;11.57;;;3.20;99.90;;;;;;5015025;28;20030;-60
2021/11/10 06:35:11;;;;;;;20.95;12.90;;;3.20;99.90;;;;;;5014988;28;20053;-60
2021/11/10 06:37:36;;;;;;;23.08;12.57;;;3.20;99.90;;;;;;5015115;28;20069;-60
2021/11/10 06:40:04;;;;;;;20.40;11.50;;;3.10;99.90;;;;;;4997384;28;20026;-60
2021/11/10 06:42:30;;;;;;;16.55;9.98;;;3.10;99.90;;;;;;5014906;28;20092;-60
2021/11/10 06:44:58;;;;;;;17.60;10.77;;;3.10;99.90;;;;;;5015025;28;20414;-60
2021/11/10 06:47:58;;;;;;;19.10;11.35;;;3.10;99.90;;;;;;4997109;28;20112;-60
2021/11/10 06:50:43;;;;;;;22.00;12.40;;;3.10;99.90;;;;;;5011686;28;20108;-60
2021/11/10 06:53:09;;;;;;;15.90;10.02;;;3.10;99.90;;;;;;5014964;28;20042;-60
2021/11/10 06:55:35;;;;;;;14.57;8.95;;;3.10;99.90;;;;;;5014542;28;20026;-60
2021/11/10 06:58:01;;;;;;;20.88;11.68;;;3.10;99.90;;;;;;5014734;28;20026;-60
2021/11/10 07:00:27;;;;;;;21.38;12.43;;;3.10;99.90;;;;;;5014613;28;20096;-60
2021/11/10 07:02:52;;;;;;;18.42;11.75;;;3.10;99.90;;;;;;5014542;28;20034;-60
2021/11/10 07:05:18;;;;;;;14.85;9.25;;;3.00;99.90;;;;;;5014391;28;20236;-60
2021/11/10 07:07:43;;;;;;;14.00;8.52;;;3.10;99.90;;;;;;5014410;28;20030;-60
2021/11/10 07:10:09;;;;;;;24.90;11.82;;;3.10;99.90;;;;;;5014445;28;20061;-60
2021/11/10 07:12:35;;;;;;;22.20;11.88;;;3.10;99.90;;;;;;5014506;28;20036;-60
2021/11/10 07:15:00;;;;;;;21.30;11.73;;;3.10;99.90;;;;;;4971765;28;20125;-60
2021/11/10 07:17:26;;;;;;;20.63;11.75;;;3.10;99.90;;;;;;5006975;28;20030;-59
2021/11/10 07:19:52;;;;;;;19.83;10.70;;;3.10;99.90;;;;;;4996649;28;20441;-59
2021/11/10 07:22:18;;;;;;;17.40;10.20;;;3.10;99.90;;;;;;5014205;28;20033;-59
2021/11/10 07:24:44;;;;;;;18.40;10.35;;;3.10;99.90;;;;;;5014079;28;20018;-59
2021/11/10 07:27:10;;;;;;;23.27;12.52;;;3.20;99.90;;;;;;5014547;28;20474;-60
2021/11/10 07:29:35;;;;;;;21.40;12.40;;;3.20;99.90;;;;;;5014184;28;20515;-60
2021/11/10 07:32:01;;;;;;;20.13;12.48;;;3.10;99.90;;;;;;5014257;28;20022;-60
2021/11/10 07:34:27;;;;;;;28.60;13.57;;;3.10;99.90;;;;;;5013166;28;20034;-60
2021/11/10 07:36:52;;;;;;;22.88;13.15;;;3.10;99.90;;;;;;5013897;28;20096;-59
2021/11/10 07:39:18;;;;;;;27.88;15.05;;;3.00;99.90;;;;;;5011932;28;20026;-60
2021/11/10 07:41:47;;;;;;;23.70;13.93;;;3.10;99.90;;;;;;5011639;28;20026;-59
2021/11/10 07:44:13;;;;;;;32.85;14.32;;;3.10;99.90;;;;;;5011778;28;20018;-59
2021/11/10 07:46:40;;;;;;;30.58;15.32;;;3.10;99.90;;;;;;4994106;28;20048;-60
2021/11/10 07:49:31;;;;;;;21.88;14.70;;;3.20;99.90;;;;;;4994105;28;20117;-59
2021/11/10 07:51:59;;;;;;;23.38;13.10;;;3.20;99.90;;;;;;5006098;28;20112;-60
2021/11/10 07:54:25;;;;;;;28.88;14.23;;;3.20;99.90;;;;;;5010418;28;20052;-60
2021/11/10 07:56:50;;;;;;;26.52;14.38;;;3.30;99.90;;;;;;5011504;28;20045;-60
2021/11/10 07:59:15;;;;;;;30.38;14.98;;;3.30;99.90;;;;;;5011512;28;20041;-60
2021/11/10 08:01:41;;;;;;;26.73;13.73;;;3.40;99.90;;;;;;5011117;28;20382;-60
2021/11/10 08:04:07;;;;;;;27.75;14.27;;;3.50;99.90;;;;;;5011029;28;20172;-60
2021/11/10 08:06:32;;;;;;;22.50;12.25;;;3.60;99.90;;;;;;5011133;28;20101;-60
2021/11/10 08:08:58;;;;;;;20.15;11.27;;;3.70;99.90;;;;;;5012939;28;20474;-60
2021/11/10 08:14:44;;;;;;;22.25;12.82;;;3.90;99.90;;;;;;4965967;28;20455;-60
2021/11/10 08:17:09;;;;;;;21.98;11.60;;;4.10;99.90;;;;;;5005712;28;20041;-60
2021/11/10 08:19:35;;;;;;;17.77;11.02;;;4.20;99.90;;;;;;5012711;28;20034;-59
2021/11/10 08:22:01;;;;;;;14.77;9.48;;;4.30;99.90;;;;;;4999539;28;20056;-60
2021/11/10 08:24:27;;;;;;;15.27;8.95;;;4.40;99.90;;;;;;4993492;28;20080;-59
2021/11/10 08:26:53;;;;;;;14.73;8.00;;;4.50;99.90;;;;;;5013080;28;20049;-60
2021/11/10 08:29:18;;;;;;;23.13;12.77;;;4.60;99.90;;;;;;5012748;28;20063;-60
2021/11/10 08:31:57;;;;;;;25.33;15.00;;;4.70;99.90;;;;;;5013117;28;20109;-59
2021/11/10 08:34:23;;;;;;;23.40;13.83;;;4.70;99.90;;;;;;4995264;28;20060;-60
2021/11/10 08:36:49;;;;;;;19.85;12.80;;;4.80;99.90;;;;;;5012990;28;20073;-60
2021/11/10 08:39:14;;;;;;;19.65;12.32;;;4.90;99.90;;;;;;4998321;28;20500;-60
2021/11/10 08:41:42;;;;;;;22.75;13.52;;;4.90;99.90;;;;;;4972330;28;20034;-60
2021/11/10 08:44:07;;;;;;;22.90;12.43;;;5.00;99.90;;;;;;5004838;28;20045;-60
2021/11/10 08:46:33;;;;;;;26.38;14.40;;;5.00;99.90;;;;;;5012914;28;20064;-60
2021/11/10 08:52:11;;;;;;;24.15;13.57;;;5.20;99.90;;;;;;5006566;28;20568;-60
2021/11/10 08:54:36;;;;;;;26.83;15.45;;;5.30;99.90;;;;;;4993637;28;20034;-60
2021/11/10 08:57:02;;;;;;;26.33;14.63;;;5.40;99.90;;;;;;4994523;28;20076;-60
2021/11/10 08:59:28;;;;;;;28.00;13.95;;;5.50;99.90;;;;;;5012378;28;20040;-60
2021/11/10 09:01:54;;;;;;;20.67;14.48;;;5.50;99.90;;;;;;5012636;28;20028;-60
2021/11/10 09:04:21;;;;;;;20.40;13.20;;;5.60;99.90;;;;;;5012263;28;20441;-59
2021/11/10 09:06:48;;;;;;;22.17;12.80;;;5.70;99.90;;;;;;5011599;28;20013;-60
2021/11/10 09:09:15;;;;;;;28.27;15.85;;;5.80;99.90;;;;;;5009358;28;20476;-60
2021/11/10 09:11:42;;;;;;;23.88;14.20;;;5.90;99.90;;;;;;4993197;28;20088;-60
2021/11/10 09:14:07;;;;;;;23.88;13.35;;;5.90;99.90;;;;;;5012279;28;20533;-60
2021/11/10 09:16:33;;;;;;;24.25;12.15;;;5.90;99.90;;;;;;5012430;28;20033;-60
2021/11/10 09:18:59;;;;;;;20.35;12.18;;;6.00;99.90;;;;;;4994571;28;20429;-60
2021/11/10 09:21:25;;;;;;;17.45;11.20;;;6.10;99.90;;;;;;5012065;28;20026;-60
2021/11/10 09:23:51;;;;;;;18.98;12.73;;;6.20;99.90;;;;;;5012138;28;20048;-60
2021/11/10 09:26:17;;;;;;;25.77;13.65;;;6.30;99.90;;;;;;4994520;28;20034;-60
2021/11/10 09:28:42;;;;;;;26.48;12.75;;;6.40;99.90;;;;;;5012133;28;20026;-60
2021/11/10 09:31:09;;;;;;;20.73;12.32;;;6.40;99.90;;;;;;4972752;28;20035;-61
2021/11/10 09:33:39;;;;;;;19.20;11.65;;;6.50;99.90;;;;;;4978102;28;20030;-60
2021/11/10 09:36:05;;;;;;;22.75;12.77;;;6.60;99.90;;;;;;4988277;28;20092;-60
2021/11/10 09:38:31;;;;;;;22.30;11.52;;;6.70;99.90;;;;;;5011847;28;20034;-60
2021/11/10 09:41:00;;;;;;;18.90;11.13;;;6.80;99.90;;;;;;5012107;28;20022;-60
2021/11/10 09:43:34;;;;;;;14.30;9.50;;;6.90;99.90;;;;;;5010108;28;20025;-60
2021/11/10 09:46:01;;;;;;;17.17;10.02;;;7.10;99.90;;;;;;4985328;28;20498;-60
2021/11/10 09:48:27;;;;;;;17.88;9.88;;;7.30;99.90;;;;;;4982236;28;20030;-60
2021/11/10 09:50:53;;;;;;;15.95;9.23;;;7.60;99.90;;;;;;4993338;28;20125;-60
2021/11/10 09:53:19;;;;;;;12.57;8.68;;;8.00;99.90;;;;;;5012020;28;20522;-60
2021/11/10 09:55:45;;;;;;;12.57;7.72;;;8.40;99.90;;;;;;4992683;28;20113;-60
2021/11/10 09:58:11;;;;;;;12.93;7.47;;;9.00;99.90;;;;;;5011792;28;20026;-60
2021/11/10 10:00:44;;;;;;;10.60;7.18;;;9.60;99.60;;;;;;4994281;28;20030;-61
2021/11/10 10:03:11;;;;;;;14.68;9.63;;;10.00;98.60;;;;;;5011780;28;20033;-60
2021/11/10 10:05:37;;;;;;;18.17;8.50;;;10.20;98.20;;;;;;5011690;28;20089;-61
2021/11/10 10:08:04;;;;;;;13.27;8.45;;;10.90;97.30;;;;;;5010244;28;20026;-61
2021/11/10 10:10:30;;;;;;;13.75;8.25;;;11.50;96.10;;;;;;5006431;28;20040;-61
2021/11/10 10:12:57;;;;;;;13.85;7.38;;;11.60;95.60;;;;;;5008505;28;20038;-60
2021/11/10 10:15:27;;;;;;;13.10;7.40;;;11.80;95.40;;;;;;5009612;28;20042;-61
2021/11/10 10:18:03;;;;;;;11.43;7.32;;;12.10;95.30;;;;;;5003090;28;20128;-61
2021/11/10 10:20:37;;;;;;;10.05;6.53;;;12.50;95.10;;;;;;5011568;28;20040;-61
2021/11/10 10:23:06;;;;;;;11.70;5.80;;;13.00;94.70;;;;;;5014399;28;20022;-61
2021/11/10 10:25:41;;;;;;;10.25;6.55;;;13.40;94.40;;;;;;5015078;28;20049;-60
2021/11/10 10:28:09;;;;;;;15.57;6.95;;;14.00;93.70;;;;;;5015193;28;20018;-61
2021/11/10 10:31:08;;;;;;;13.13;7.35;;;14.80;92.60;;;;;;5015122;28;20022;-61
2021/11/10 10:33:37;;;;;;;8.48;5.45;;;15.60;90.40;;;;;;5014016;28;20041;-61
2021/11/10 10:36:30;;;;;;;12.73;5.93;;;16.40;88.70;;;;;;4997588;28;20041;-61
2021/11/10 10:38:58;;;;;;;15.10;6.55;;;17.40;84.80;;;;;;4997572;28;20026;-61
2021/11/10 10:41:31;;;;;;;10.57;6.10;;;18.30;77.90;;;;;;5013577;28;20025;-60
2021/11/10 10:44:07;;;;;;;15.98;6.25;;;18.90;75.90;;;;;;4997461;28;20117;-61
2021/11/10 10:46:38;;;;;;;13.15;6.22;;;19.50;71.70;;;;;;5013285;28;20037;-61
2021/11/10 10:49:21;;;;;;;10.82;5.80;;;19.90;68.10;;;;;;5014742;28;20026;-61
2021/11/10 10:51:50;;;;;;;12.30;6.32;;;19.70;65.70;;;;;;5015082;28;20037;-61
2021/11/10 10:54:15;;;;;;;13.98;6.38;;;19.00;65.50;;;;;;4997407;28;20153;-61
2021/11/10 10:56:48;;;;;;;11.85;6.05;;;18.20;65.70;;;;;;5014455;28;20105;-61
2021/11/10 10:59:14;;;;;;;9.68;5.95;;;18.10;67.40;;;;;;5013747;28;20030;-61
2021/11/10 11:04:46;;;;;;;9.90;5.93;;;18.90;67.10;;;;;;5001195;28;20065;-61
2021/11/10 11:07:15;;;;;;;9.40;5.47;;;19.80;66.20;;;;;;5014722;28;20083;-61
2021/11/10 11:09:40;;;;;;;9.68;5.03;;;21.10;64.20;;;;;;5002300;28;20124;-61
2021/11/10 11:12:18;;;;;;;8.65;5.10;;;22.40;61.20;;;;;;4985269;28;20096;-71
2021/11/10 11:15:34;;;;;;;12.55;6.50;;;23.70;57.50;;;;;;4996021;28;20593;-61
2021/11/10 11:18:58;;;;;;;7.70;4.63;;;24.10;54.70;;;;;;4987151;28;20025;-61
2021/11/10 11:21:27;;;;;;;8.80;4.95;;;24.30;54.30;;;;;;5000453;28;20060;-61
2021/11/10 11:24:15;;;;;;;;;;;;;;;;;;;;;
2021/11/10 11:26:42;;;;;;;7.05;4.82;;;25.50;51.80;;;;;;4973742;28;20034;-62
2021/11/10 11:29:25;;;;;;;7.03;4.45;;;26.50;50.10;;;;;;4984113;28;20030;-62
2021/11/10 11:31:52;;;;;;;8.55;4.82;;;27.10;48.70;;;;;;5014083;28;20386;-61
2021/11/10 11:34:19;;;;;;;7.35;5.15;;;27.60;47.70;;;;;;4996175;28;20520;-62
2021/11/10 11:37:03;;;;;;;7.55;4.75;;;27.70;46.70;;;;;;4996342;28;20029;-61
2021/11/10 11:39:30;;;;;;;7.50;4.70;;;27.90;46.20;;;;;;4996340;28;20109;-62
2021/11/10 11:42:19;;;;;;;8.68;5.10;;;28.10;45.90;;;;;;4996176;28;20486;-62
2021/11/10 11:44:45;;;;;;;5.55;3.78;;;28.40;44.80;;;;;;5014031;28;20062;-61
2021/11/10 11:47:11;;;;;;;7.38;4.10;;;28.50;44.60;;;;;;5013680;28;20435;-62
2021/11/10 11:49:39;;;;;;;7.68;5.43;;;28.60;43.90;;;;;;5013668;28;20064;-62
2021/11/10 11:52:13;;;;;;;7.03;4.70;;;28.30;43.20;;;;;;4995988;28;20395;-63
2021/11/10 11:54:43;;;;;;;8.20;5.22;;;28.00;43.30;;;;;;5013659;28;20045;-62
2021/11/10 11:57:11;;;;;;;9.45;5.45;;;27.90;43.20;;;;;;5013453;28;20034;-61
2021/11/10 11:59:40;;;;;;;7.38;5.00;;;27.90;43.20;;;;;;5013313;28;20378;-62
2021/11/10 12:02:24;;;;;;;7.63;4.80;;;28.10;43.20;;;;;;5013684;28;20018;-62
2021/11/10 12:05:11;;;;;;;7.90;4.90;;;28.20;42.70;;;;;;5013278;28;20216;-62
2021/11/10 12:14:58;;;;;;;7.53;4.63;;;30.10;40.80;;;;;;4885628;29;20168;-62
2021/11/10 12:21:05;;;;;;;6.63;4.20;;;32.10;39.00;;;;;;4946440;29;20039;-62
2021/11/10 12:24:08;;;;;;;9.05;5.57;;;33.10;38.20;;;;;;4949935;29;20031;-62
2021/11/10 12:26:54;;;;;;;9.43;6.10;;;33.30;36.30;;;;;;4988904;28;20503;-62
2021/11/10 12:29:57;;;;;;;8.13;5.68;;;32.80;34.70;;;;;;5012688;28;20113;-62
2021/11/10 12:32:28;;;;;;;10.77;7.55;;;32.70;35.40;;;;;;5011285;28;20034;-62
2021/11/10 12:34:56;;;;;;;9.30;6.57;;;31.70;33.60;;;;;;5013023;28;20121;-62
2021/11/10 12:37:26;;;;;;;11.43;9.00;;;30.60;34.70;;;;;;5013088;28;20465;-62
2021/11/10 12:40:09;;;;;;;13.90;9.88;;;28.80;34.60;;;;;;5012697;28;20026;-62
2021/11/10 12:42:51;;;;;;;13.35;8.20;;;26.50;37.10;;;;;;5012643;28;20029;-62
2021/11/10 12:45:24;;;;;;;11.48;8.10;;;24.60;39.60;;;;;;4995227;28;20018;-62
2021/11/10 12:47:50;;;;;;;13.07;9.35;;;23.30;42.00;;;;;;5012686;28;20044;-62
2021/11/10 12:50:23;;;;;;;11.23;7.45;;;22.10;43.90;;;;;;5012568;28;20112;-61
2021/11/10 12:52:50;;;;;;;14.32;8.30;;;21.40;45.70;;;;;;5012937;28;20029;-61
2021/11/10 12:55:19;;;;;;;12.25;7.85;;;21.00;46.30;;;;;;5012559;28;20025;-61
2021/11/10 12:57:44;;;;;;;14.73;8.85;;;20.90;47.20;;;;;;5012401;28;20076;-61
2021/11/10 13:00:15;;;;;;;11.07;6.95;;;21.10;47.40;;;;;;5012166;28;20042;-61
2021/11/10 13:02:42;;;;;;;12.90;7.90;;;21.50;46.90;;;;;;5012529;28;20501;-61
2021/11/10 13:05:09;;;;;;;12.32;7.50;;;21.60;46.20;;;;;;5012258;28;20037;-61
2021/11/10 13:07:38;;;;;;;10.68;7.70;;;21.70;46.20;;;;;;5012616;28;20028;-61
2021/11/10 13:10:13;;;;;;;14.57;9.07;;;21.60;46.00;;;;;;5012528;28;20390;-61